Time;durP1;ratioP1;P1;durP2;ratioP2;P2;SDS_P1;SDS_P2;PMS_P1;PMS_P2;Temp;Humidity;BMP_temperature;BMP_pressure;BME280_temperature;BME280_humidity;BME280_pressure;Samples;Min_cycle;Max_cycle;Signal;HPM_P1;HPM_P2
2022/02/09 00:00:28;;;;;;;4.47;1.90;;;9.80;99.90;;;;;;5114882;28;20028;-75
2022/02/09 00:03:16;;;;;;;6.78;3.38;;;9.80;99.90;;;;;;5115915;28;20024;-74
2022/02/09 00:05:56;;;;;;;4.65;2.03;;;9.80;99.90;;;;;;5115206;28;20046;-77
2022/02/09 00:08:23;;;;;;;5.88;2.00;;;9.90;99.90;;;;;;5115889;28;20034;-76
2022/02/09 00:10:55;;;;;;;4.95;1.90;;;9.80;99.90;;;;;;5115660;28;20040;-76
2022/02/09 00:13:39;;;;;;;2.38;2.10;;;9.80;99.90;;;;;;5114895;28;20406;-77
2022/02/09 00:16:40;;;;;;;4.22;2.38;;;9.90;99.90;;;;;;5115951;28;20031;-74
2022/02/09 00:19:12;;;;;;;4.13;2.55;;;9.80;99.90;;;;;;5115564;28;20080;-74
2022/02/09 00:22:03;;;;;;;6.05;3.67;;;9.80;99.90;;;;;;5114663;28;20023;-76
2022/02/09 00:30:21;;;;;;;5.65;4.20;;;9.80;99.90;;;;;;5116081;28;20024;-75
2022/02/09 01:43:49;;;;;;;5.53;5.03;;;9.70;99.90;;;;;;5114096;28;20023;-75
2022/02/09 01:56:45;;;;;;;6.43;5.75;;;9.70;99.90;;;;;;5114365;28;20103;-76
2022/02/09 01:59:11;;;;;;;7.22;5.95;;;9.60;99.90;;;;;;5113459;28;20451;-77
2022/02/09 02:01:36;;;;;;;6.40;5.60;;;9.70;99.90;;;;;;5113621;28;20490;-74
2022/02/09 02:04:02;;;;;;;6.30;5.15;;;9.70;99.90;;;;;;5113461;28;20040;-76
2022/02/09 02:06:28;;;;;;;6.60;5.93;;;9.70;99.90;;;;;;5112623;28;20039;-76
2022/02/09 02:08:54;;;;;;;7.90;5.63;;;9.70;99.90;;;;;;5113726;28;20023;-77
2022/02/09 02:16:47;;;;;;;6.65;5.97;;;9.60;99.90;;;;;;5113296;28;20030;-76
2022/02/09 02:27:55;;;;;;;8.48;7.75;;;9.50;99.90;;;;;;5113119;28;20038;-76
2022/02/09 02:33:19;;;;;;;9.52;8.63;;;9.60;99.90;;;;;;5113822;28;20543;-76
2022/02/09 03:07:41;;;;;;;11.40;10.32;;;9.70;99.90;;;;;;5113709;28;20035;-76
2022/02/09 03:13:33;;;;;;;10.00;9.02;;;9.70;99.90;;;;;;5116407;28;20043;-75
2022/02/09 03:16:04;;;;;;;9.30;8.50;;;9.60;99.90;;;;;;5116647;28;20094;-75
2022/02/09 03:19:09;;;;;;;9.25;8.35;;;9.60;99.90;;;;;;5116795;28;20497;-75
2022/02/09 03:21:51;;;;;;;8.48;7.53;;;9.60;99.90;;;;;;5116696;28;20023;-75
2022/02/09 03:24:32;;;;;;;7.80;7.00;;;9.60;99.90;;;;;;5116540;28;20032;-75
2022/02/09 03:27:24;;;;;;;8.55;7.38;;;9.60;99.90;;;;;;5116978;28;20032;-76
2022/02/09 03:46:45;;;;;;;7.50;6.00;;;9.60;99.90;;;;;;5115932;28;20828;-76
2022/02/09 03:52:20;;;;;;;6.68;6.07;;;9.50;99.90;;;;;;5115436;28;20497;-76
2022/02/09 03:54:54;;;;;;;6.85;6.00;;;10.20;99.90;;;;;;5115331;28;20467;-77
2022/02/09 03:57:29;;;;;;;5.87;5.10;;;9.50;99.90;;;;;;5116641;28;20054;-76
2022/02/09 03:59:57;;;;;;;8.20;6.30;;;9.50;99.90;;;;;;5115720;28;20253;-76
2022/02/09 04:02:22;;;;;;;6.93;6.25;;;9.50;99.90;;;;;;5115635;28;20111;-78
2022/02/09 04:04:54;;;;;;;6.60;6.00;;;9.40;99.90;;;;;;5114354;28;20126;-75
2022/02/09 04:07:20;;;;;;;6.53;5.93;;;9.40;99.90;;;;;;5115007;28;20135;-74
2022/02/09 04:09:49;;;;;;;8.18;7.38;;;9.50;99.90;;;;;;5115733;28;20051;-77
2022/02/09 04:12:33;;;;;;;7.57;6.88;;;9.50;99.90;;;;;;5114965;28;20054;-76
2022/02/09 04:17:45;;;;;;;8.20;7.45;;;9.50;99.90;;;;;;5115493;28;20028;-77
2022/02/09 04:38:54;;;;;;;7.93;7.22;;;9.40;99.90;;;;;;5115833;28;20067;-76
2022/02/09 04:47:21;;;;;;;6.18;5.57;;;9.50;99.90;;;;;;5114154;28;20047;-75
2022/02/09 04:55:40;;;;;;;7.60;6.90;;;9.50;99.90;;;;;;5114010;28;20458;-76
2022/02/09 04:57:43;;;;;;;7.68;6.53;;;9.40;99.90;;;;;;5111507;28;20057;-75
2022/02/09 05:20:00;;;;;;;9.93;9.02;;;9.30;99.90;;;;;;5115315;28;20049;-76
2022/02/09 05:21:56;;;;;;;9.07;8.27;;;9.30;99.90;;;;;;5114394;28;20034;-76
2022/02/09 05:25:26;;;;;;;8.68;7.95;;;9.30;99.90;;;;;;5099521;28;20129;-76
2022/02/09 05:27:21;;;;;;;8.38;7.53;;;9.30;99.90;;;;;;5108535;28;20550;-76
2022/02/09 05:29:47;;;;;;;8.50;7.90;;;9.30;99.90;;;;;;5113897;28;20038;-76
2022/02/09 05:32:13;;;;;;;12.05;7.38;;;9.40;99.90;;;;;;5113938;28;20036;-76
2022/02/09 05:34:38;;;;;;;9.15;7.45;;;9.30;99.90;;;;;;5114358;28;20059;-76
2022/02/09 05:37:04;;;;;;;7.65;6.93;;;9.30;99.90;;;;;;5113154;28;20432;-75
2022/02/09 05:39:30;;;;;;;7.93;7.10;;;9.30;99.90;;;;;;5113913;28;20031;-77
2022/02/09 05:41:56;;;;;;;7.78;7.07;;;9.30;99.90;;;;;;5114347;28;20073;-74
2022/02/09 05:44:22;;;;;;;6.95;6.25;;;9.30;99.90;;;;;;5113047;28;20032;-75
2022/02/09 05:51:54;;;;;;;9.32;5.90;;;9.30;99.90;;;;;;5113080;28;20470;-76
2022/02/09 05:57:10;;;;;;;7.10;6.47;;;9.20;99.90;;;;;;5113927;28;20111;-76
2022/02/09 05:59:34;;;;;;;6.78;6.18;;;9.20;99.90;;;;;;5113353;28;20024;-75
2022/02/09 06:01:59;;;;;;;7.32;6.72;;;9.20;99.90;;;;;;5114325;28;20028;-75
2022/02/09 06:04:26;;;;;;;6.90;6.30;;;9.20;99.90;;;;;;5113136;28;20047;-75
2022/02/09 06:06:52;;;;;;;6.97;6.35;;;9.20;99.90;;;;;;5114712;28;20100;-76
2022/02/09 06:09:17;;;;;;;7.85;7.15;;;9.20;99.90;;;;;;5113941;28;20020;-76
2022/02/09 06:19:50;;;;;;;6.50;5.68;;;9.20;99.90;;;;;;5119048;28;20034;-75
2022/02/09 06:22:16;;;;;;;6.68;5.75;;;9.20;99.90;;;;;;5120176;28;20462;-76
2022/02/09 06:24:42;;;;;;;7.32;5.95;;;9.20;99.90;;;;;;5111911;28;20051;-76
2022/02/09 06:27:12;;;;;;;7.10;6.47;;;9.20;99.90;;;;;;5111576;28;20106;-76
2022/02/09 06:29:39;;;;;;;9.85;6.13;;;9.20;99.90;;;;;;5112653;28;20039;-75
2022/02/09 06:32:09;;;;;;;6.88;6.25;;;9.30;99.90;;;;;;5111858;28;20528;-75
2022/02/09 06:34:39;;;;;;;6.75;6.18;;;9.20;99.90;;;;;;5112380;28;20024;-75
2022/02/09 06:37:16;;;;;;;7.05;6.55;;;9.20;99.90;;;;;;5117851;27;20027;-75
2022/02/09 06:39:45;;;;;;;6.25;5.78;;;9.20;99.90;;;;;;5116150;28;20030;-75
2022/02/09 06:42:11;;;;;;;6.60;6.10;;;9.10;99.90;;;;;;5116176;28;20016;-74
2022/02/09 06:44:37;;;;;;;6.65;6.05;;;9.20;99.90;;;;;;5120812;27;20031;-74
2022/02/09 06:47:03;;;;;;;6.20;5.70;;;9.10;99.90;;;;;;5115790;28;20019;-75
2022/02/09 06:49:30;;;;;;;8.57;6.45;;;9.20;99.90;;;;;;5118229;27;20011;-75
2022/02/09 06:51:56;;;;;;;7.65;5.93;;;9.20;99.90;;;;;;5116825;27;20071;-75
2022/02/09 06:54:34;;;;;;;7.30;6.60;;;9.40;99.90;;;;;;5121556;27;20047;-74
2022/02/09 06:57:25;;;;;;;7.53;6.63;;;9.20;99.90;;;;;;5119455;27;20055;-74
2022/02/09 06:59:53;;;;;;;7.93;7.13;;;9.10;99.90;;;;;;5116011;28;20023;-74
2022/02/09 07:02:19;;;;;;;7.70;6.97;;;9.10;99.90;;;;;;5117707;27;20023;-74
2022/02/09 07:04:49;;;;;;;8.05;7.32;;;9.10;99.90;;;;;;5116471;28;20054;-75
2022/02/09 07:07:15;;;;;;;7.85;6.95;;;9.10;99.90;;;;;;5119070;27;20028;-74
2022/02/09 07:09:40;;;;;;;7.35;6.75;;;9.10;99.90;;;;;;5116480;28;20464;-74
2022/02/09 07:12:06;;;;;;;7.53;6.93;;;9.00;99.90;;;;;;5116388;28;20375;-75
2022/02/09 07:14:32;;;;;;;7.32;6.63;;;9.00;99.90;;;;;;5115821;28;20020;-75
2022/02/09 07:16:58;;;;;;;5.47;4.95;;;9.80;99.90;;;;;;5122961;27;20019;-75
2022/02/09 07:19:26;;;;;;;6.07;5.57;;;9.00;99.90;;;;;;5119826;27;20024;-74
2022/02/09 07:21:53;;;;;;;8.10;5.53;;;9.00;99.90;;;;;;5116537;28;20023;-74
2022/02/09 07:24:20;;;;;;;6.13;5.45;;;9.00;99.90;;;;;;5116152;28;20502;-74
2022/02/09 07:29:13;;;;;;;5.22;4.82;;;9.00;99.90;;;;;;5116968;27;20008;-74
2022/02/09 07:31:39;;;;;;;5.90;5.32;;;9.00;99.90;;;;;;5116011;27;20057;-75
2022/02/09 07:34:05;;;;;;;6.75;6.15;;;9.00;99.90;;;;;;5104933;27;20015;-77
2022/02/09 07:36:35;;;;;;;7.25;6.55;;;9.00;99.90;;;;;;5132717;27;20034;-74
2022/02/09 07:39:04;;;;;;;8.45;7.65;;;9.00;99.90;;;;;;5119227;27;20020;-75
2022/02/09 07:41:30;;;;;;;8.73;7.88;;;8.90;99.90;;;;;;5116438;27;20028;-76
2022/02/09 07:46:36;;;;;;;10.05;8.80;;;9.00;99.90;;;;;;5121457;27;20064;-75
2022/02/09 07:54:05;;;;;;;9.63;8.73;;;9.00;99.90;;;;;;5123764;27;20027;-76
2022/02/09 07:56:42;;;;;;;12.40;9.15;;;9.00;99.90;;;;;;5133797;27;20061;-75
2022/02/09 07:59:10;;;;;;;10.40;9.40;;;9.00;99.90;;;;;;5119194;27;20016;-76
2022/02/09 08:01:36;;;;;;;13.52;9.10;;;9.00;99.90;;;;;;5103555;28;20024;-76
2022/02/09 08:04:02;;;;;;;10.02;9.07;;;9.00;99.90;;;;;;5117646;27;20100;-76
2022/02/09 08:06:28;;;;;;;10.43;9.38;;;9.10;99.90;;;;;;5122124;27;20020;-77
2022/02/09 08:08:58;;;;;;;10.10;9.10;;;9.00;99.90;;;;;;5121229;27;20016;-76
2022/02/09 08:11:29;;;;;;;12.07;9.57;;;9.10;99.90;;;;;;5128052;27;20066;-78
2022/02/09 08:27:41;;;;;;;10.55;8.88;;;9.10;99.90;;;;;;5120938;27;20390;-77
2022/02/09 08:32:56;;;;;;;9.35;8.35;;;9.20;99.90;;;;;;5141306;27;20035;-78
2022/02/09 08:35:23;;;;;;;9.52;8.55;;;9.20;99.90;;;;;;5142100;27;20053;-76
2022/02/09 08:37:50;;;;;;;10.63;9.20;;;9.10;99.90;;;;;;5134858;27;20122;-78
2022/02/09 08:40:18;;;;;;;9.90;8.88;;;9.10;99.90;;;;;;5120100;27;20028;-78
2022/02/09 08:42:45;;;;;;;12.68;10.05;;;9.20;99.90;;;;;;5103485;28;20121;-79
2022/02/09 08:45:11;;;;;;;11.70;8.88;;;9.20;99.90;;;;;;5123351;28;20059;-81
2022/02/09 08:47:36;;;;;;;14.40;9.18;;;9.20;99.90;;;;;;5121035;28;20069;-80
2022/02/09 08:50:06;;;;;;;10.32;9.32;;;9.20;99.90;;;;;;5119510;28;20117;-80
2022/02/09 08:52:32;;;;;;;10.60;9.50;;;9.20;99.90;;;;;;5116420;27;20549;-79
2022/02/09 08:54:58;;;;;;;13.25;9.70;;;9.30;99.90;;;;;;5137680;27;20069;-79
2022/02/09 08:57:24;;;;;;;10.80;9.70;;;9.30;99.90;;;;;;5137606;27;20488;-78
2022/02/09 08:59:51;;;;;;;10.07;9.02;;;9.30;99.90;;;;;;5140595;27;20031;-79
2022/02/09 09:02:18;;;;;;;11.82;9.70;;;9.30;99.90;;;;;;5140254;27;20538;-78
2022/02/09 09:04:54;;;;;;;10.60;9.40;;;9.40;99.90;;;;;;5139253;27;20525;-79
2022/02/09 09:07:25;;;;;;;11.52;10.13;;;9.40;99.90;;;;;;5139109;27;20478;-79
2022/02/09 09:10:11;;;;;;;11.77;10.57;;;9.40;99.90;;;;;;5123909;27;20515;-78
2022/02/09 10:05:17;;;;;;;11.35;10.15;;;9.90;99.90;;;;;;5135128;27;20059;-78
2022/02/09 10:33:12;;;;;;;12.02;9.70;;;10.40;99.90;;;;;;5126680;28;20034;-79
2022/02/09 10:35:59;;;;;;;12.52;11.23;;;10.30;99.90;;;;;;5126332;27;20027;-77
2022/02/09 10:38:33;;;;;;;13.45;11.63;;;10.30;99.90;;;;;;5121057;28;20048;-76
2022/02/09 10:41:09;;;;;;;12.48;10.50;;;10.40;99.90;;;;;;5122858;28;20019;-77
2022/02/09 10:43:36;;;;;;;14.50;10.75;;;10.30;99.90;;;;;;5128211;27;20042;-77
2022/02/09 10:46:16;;;;;;;13.68;11.55;;;10.30;99.90;;;;;;5132189;28;20023;-78
2022/02/09 10:49:07;;;;;;;16.42;12.40;;;10.40;99.90;;;;;;5124466;27;20046;-80
2022/02/09 10:54:18;;;;;;;12.65;10.50;;;10.30;99.90;;;;;;5123514;27;20015;-78
2022/02/09 10:56:46;;;;;;;20.05;13.43;;;10.30;99.90;;;;;;5127474;28;20023;-78
2022/02/09 10:59:14;;;;;;;15.23;11.55;;;10.30;99.90;;;;;;5122108;28;20026;-78
2022/02/09 11:01:41;;;;;;;13.98;11.32;;;10.20;99.90;;;;;;5123305;28;20066;-80
2022/02/09 11:04:08;;;;;;;15.35;11.55;;;10.30;99.90;;;;;;5120941;27;20102;-79
2022/02/09 11:06:36;;;;;;;16.42;12.68;;;10.30;99.90;;;;;;5121335;28;20118;-79
2022/02/09 11:09:07;;;;;;;12.55;10.15;;;10.30;99.90;;;;;;5128314;28;20115;-79
2022/02/09 11:11:37;;;;;;;12.60;9.85;;;9.80;99.90;;;;;;5122926;28;20483;-78
2022/02/09 11:14:03;;;;;;;14.07;11.82;;;10.40;99.90;;;;;;5122872;27;20777;-80
2022/02/09 11:16:30;;;;;;;13.40;11.98;;;10.40;99.90;;;;;;5120256;28;20020;-79
2022/02/09 11:18:57;;;;;;;13.85;12.00;;;10.40;99.90;;;;;;5119150;27;20031;-79
2022/02/09 11:21:30;;;;;;;14.27;12.18;;;10.40;99.90;;;;;;5123072;28;20028;-80
2022/02/09 11:24:00;;;;;;;16.13;12.15;;;10.40;99.90;;;;;;5122810;27;20446;-78
2022/02/09 11:27:04;;;;;;;17.08;11.73;;;10.40;99.90;;;;;;5129060;27;20031;-77
2022/02/09 11:32:03;;;;;;;15.75;12.60;;;10.30;99.90;;;;;;5126702;27;20039;-78
2022/02/09 11:37:25;;;;;;;15.55;12.25;;;10.40;99.90;;;;;;5127343;27;20027;-78
2022/02/09 11:39:53;;;;;;;14.27;12.55;;;10.30;99.90;;;;;;5123174;27;20038;-79
2022/02/09 11:42:26;;;;;;;20.40;12.50;;;10.40;99.90;;;;;;5123584;27;20027;-79
2022/02/09 11:44:58;;;;;;;14.63;13.05;;;10.30;99.90;;;;;;5142027;27;20035;-77
2022/02/09 11:48:04;;;;;;;15.27;11.88;;;10.30;99.90;;;;;;5138498;27;20376;-78
2022/02/09 12:11:38;;;;;;;19.25;12.52;;;10.30;99.90;;;;;;5132323;27;20095;-78
2022/02/09 12:16:45;;;;;;;16.77;12.02;;;10.40;99.90;;;;;;5138828;27;20023;-78
2022/02/09 12:19:29;;;;;;;14.55;11.75;;;10.40;99.90;;;;;;5138641;27;20027;-79
2022/02/09 12:22:11;;;;;;;14.82;11.57;;;10.30;99.90;;;;;;5141629;27;20031;-78
2022/02/09 12:24:37;;;;;;;16.13;10.70;;;10.30;99.90;;;;;;5136367;27;20023;-78
2022/02/09 12:27:16;;;;;;;15.32;11.52;;;10.30;99.90;;;;;;5138161;27;20022;-80
2022/02/09 12:29:44;;;;;;;13.43;11.38;;;10.30;99.90;;;;;;5136870;27;20031;-79
2022/02/09 12:32:15;;;;;;;12.63;10.50;;;10.30;99.90;;;;;;5137590;27;20087;-81
2022/02/09 12:34:59;;;;;;;12.93;10.88;;;10.40;99.90;;;;;;5137100;27;20091;-78
2022/02/09 12:37:38;;;;;;;14.07;10.15;;;10.40;99.90;;;;;;5136497;27;20079;-78
2022/02/09 12:40:10;;;;;;;14.00;9.93;;;10.40;99.90;;;;;;5135890;27;20394;-79
2022/02/09 12:42:41;;;;;;;12.77;9.00;;;10.40;99.90;;;;;;5136854;27;20046;-78
2022/02/09 12:45:07;;;;;;;;;;;10.40;99.90;;;;;;5135702;27;20075;-80
2022/02/09 12:47:34;;;;;;;11.88;10.05;;;10.40;99.90;;;;;;5136702;27;19994;-79
2022/02/09 12:50:02;;;;;;;12.43;9.40;;;10.30;99.90;;;;;;5136824;27;20015;-79
2022/02/09 12:52:28;;;;;;;10.10;8.88;;;10.30;99.90;;;;;;5137238;27;20031;-79
2022/02/09 12:55:19;;;;;;;11.07;9.73;;;10.30;99.90;;;;;;5137730;27;20030;-78
2022/02/09 12:57:50;;;;;;;14.60;10.00;;;10.30;99.90;;;;;;5132995;27;20118;-79
2022/02/09 13:00:34;;;;;;;9.93;8.32;;;10.30;99.90;;;;;;5133716;27;20108;-78
2022/02/09 13:03:03;;;;;;;10.35;8.20;;;10.40;99.90;;;;;;5133407;27;20047;-80
2022/02/09 13:05:30;;;;;;;14.15;9.23;;;10.40;99.90;;;;;;5132671;27;20486;-79
2022/02/09 13:08:00;;;;;;;11.35;9.05;;;10.40;99.90;;;;;;5135408;27;20023;-80
2022/02/09 13:10:33;;;;;;;11.43;8.93;;;10.30;99.90;;;;;;5136778;27;20099;-79
2022/02/09 13:13:11;;;;;;;11.70;9.80;;;10.30;99.90;;;;;;5133604;27;20051;-78
2022/02/09 13:15:50;;;;;;;15.90;9.73;;;10.30;99.90;;;;;;5136691;27;20035;-80
2022/02/09 14:13:04;;;;;;;10.52;8.10;;;10.40;99.90;;;;;;5124033;27;20039;-80
2022/02/09 14:15:52;;;;;;;11.38;7.53;;;10.40;99.90;;;;;;5130489;27;20451;-81
2022/02/09 14:18:48;;;;;;;10.95;7.20;;;10.40;99.90;;;;;;5124542;28;20034;-75
2022/02/09 14:58:05;;;;;;;11.75;8.38;;;10.20;99.90;;;;;;5119205;28;20056;-79
2022/02/09 15:00:34;;;;;;;8.18;7.40;;;10.20;99.90;;;;;;5120402;28;20026;-80
2022/02/09 15:06:24;;;;;;;22.80;9.38;;;10.20;99.90;;;;;;5120662;28;20078;-80
2022/02/09 15:14:22;;;;;;;9.15;8.32;;;10.20;99.90;;;;;;5121925;28;20065;-80
2022/02/09 15:22:10;;;;;;;11.73;8.18;;;10.20;99.90;;;;;;5121088;28;20493;-80
2022/02/09 15:24:40;;;;;;;14.15;10.13;;;10.10;99.90;;;;;;5121946;28;20077;-80
2022/02/09 15:27:10;;;;;;;12.20;9.15;;;10.10;99.90;;;;;;5120818;28;20020;-79
2022/02/09 15:29:37;;;;;;;13.40;9.10;;;10.10;99.90;;;;;;5121545;28;20118;-81
2022/02/09 15:32:08;;;;;;;11.50;9.73;;;10.10;99.90;;;;;;5121968;28;20445;-80
2022/02/09 15:34:43;;;;;;;;;;;10.10;99.90;;;;;;5122284;28;20019;-79
2022/02/09 15:37:31;;;;;;;11.13;9.73;;;10.10;99.90;;;;;;5121923;28;19977;-79
2022/02/09 15:40:05;;;;;;;14.63;9.65;;;10.00;99.90;;;;;;5120294;28;20038;-80
2022/02/09 15:42:53;;;;;;;11.45;9.02;;;10.00;99.90;;;;;;5119355;28;20023;-79
2022/02/09 15:56:19;;;;;;;8.98;7.43;;;10.00;99.90;;;;;;5120214;28;20432;-79
2022/02/09 16:22:36;;;;;;;16.13;7.07;;;9.80;99.90;;;;;;5120886;28;20047;-80
2022/02/09 16:46:36;;;;;;;7.75;5.50;;;9.70;99.90;;;;;;5118259;28;20030;-80
2022/02/09 16:49:08;;;;;;;12.43;6.30;;;9.60;99.90;;;;;;5118194;28;20023;-81
2022/02/09 16:51:45;;;;;;;10.57;6.28;;;9.60;99.90;;;;;;5117111;28;20027;-80
2022/02/09 17:08:19;;;;;;;16.42;6.63;;;9.50;99.90;;;;;;5119095;28;20441;-80
2022/02/09 17:21:27;;;;;;;12.63;5.90;;;9.50;99.90;;;;;;5115345;28;20051;-80
2022/02/09 17:24:01;;;;;;;15.57;6.50;;;9.50;99.90;;;;;;5117143;28;20035;-81
2022/02/09 17:26:27;;;;;;;8.82;6.20;;;9.50;99.90;;;;;;5116420;28;20047;-81
2022/02/09 17:28:59;;;;;;;12.73;6.45;;;9.50;99.90;;;;;;5117964;28;20027;-81
2022/02/09 17:31:36;;;;;;;9.13;6.38;;;9.50;99.90;;;;;;5117478;28;20106;-80
2022/02/09 17:53:24;;;;;;;17.38;7.55;;;9.40;99.90;;;;;;5116649;28;20116;-79
2022/02/09 17:55:47;;;;;;;11.20;7.30;;;9.40;99.90;;;;;;5118600;28;20034;-79
2022/02/09 17:58:16;;;;;;;9.82;7.35;;;9.30;99.90;;;;;;5116411;28;20115;-78
2022/02/09 18:00:42;;;;;;;16.45;8.80;;;9.30;99.90;;;;;;5116341;28;20032;-77
2022/02/09 18:03:08;;;;;;;26.80;10.93;;;9.30;99.90;;;;;;5116471;28;20177;-78
2022/02/09 18:08:11;;;;;;;21.98;11.35;;;9.30;99.90;;;;;;5116604;28;20031;-77
2022/02/09 18:31:38;;;;;;;23.23;10.77;;;9.20;99.90;;;;;;5122923;27;20023;-77
2022/02/09 18:44:47;;;;;;;18.95;10.75;;;9.30;99.90;;;;;;5122305;27;20104;-76
2022/02/09 18:47:38;;;;;;;18.67;9.95;;;9.20;99.90;;;;;;5125615;27;20023;-76
2022/02/09 19:03:48;;;;;;;17.55;9.00;;;9.10;99.90;;;;;;5121958;27;20097;-76
2022/02/09 19:06:20;;;;;;;19.48;9.45;;;9.10;99.90;;;;;;5115849;28;20090;-76
2022/02/09 19:29:57;;;;;;;12.45;8.55;;;9.00;99.90;;;;;;5118709;27;20419;-76
2022/02/09 19:45:55;;;;;;;13.98;9.25;;;9.10;99.90;;;;;;5136198;27;20022;-77
2022/02/09 19:48:28;;;;;;;15.55;10.30;;;9.10;99.90;;;;;;5130849;27;20031;-78
2022/02/09 19:55:59;;;;;;;19.35;12.13;;;9.10;99.90;;;;;;5126007;27;20047;-77
2022/02/09 19:58:55;;;;;;;19.52;13.15;;;9.00;99.90;;;;;;5130327;27;20061;-78
2022/02/09 20:01:16;;;;;;;28.02;16.20;;;9.00;99.90;;;;;;5131961;27;20111;-78
2022/02/09 20:03:41;;;;;;;26.35;16.70;;;9.00;99.90;;;;;;5129349;27;20035;-76
2022/02/09 20:06:08;;;;;;;29.77;18.05;;;9.00;99.90;;;;;;5129819;27;20032;-76
2022/02/09 20:08:38;;;;;;;37.47;20.67;;;9.00;99.90;;;;;;5129417;27;20432;-76
2022/02/09 20:11:05;;;;;;;37.30;20.10;;;9.00;99.90;;;;;;5130157;27;20043;-75
2022/02/09 20:13:31;;;;;;;33.78;19.23;;;9.00;99.90;;;;;;5129221;27;20160;-76
2022/02/09 20:15:58;;;;;;;31.05;17.70;;;8.90;99.90;;;;;;5127372;27;20474;-75
2022/02/09 20:18:24;;;;;;;30.15;16.38;;;8.90;99.90;;;;;;5125684;27;20039;-78
2022/02/09 20:20:51;;;;;;;27.73;15.32;;;9.00;99.90;;;;;;5129738;27;20053;-76
2022/02/09 20:23:16;;;;;;;23.23;13.60;;;9.00;99.90;;;;;;5125443;27;20019;-74
2022/02/09 20:25:43;;;;;;;28.00;13.60;;;9.00;99.90;;;;;;5117216;27;20028;-76
2022/02/09 20:28:09;;;;;;;24.77;12.35;;;9.00;99.90;;;;;;5122743;27;20114;-76
2022/02/09 20:30:40;;;;;;;29.63;12.95;;;9.00;99.90;;;;;;5118504;27;20141;-74
2022/02/09 20:33:11;;;;;;;22.02;12.52;;;9.00;99.90;;;;;;5129750;27;20035;-77
2022/02/09 20:35:37;;;;;;;23.15;13.73;;;8.90;99.90;;;;;;5128015;27;20061;-77
2022/02/09 20:38:03;;;;;;;26.92;14.95;;;9.00;99.90;;;;;;5119173;27;20062;-77
2022/02/09 20:40:48;;;;;;;37.25;14.55;;;8.90;99.90;;;;;;5125172;27;20019;-75
2022/02/09 20:43:16;;;;;;;22.63;14.35;;;9.00;99.90;;;;;;5124734;27;20124;-76
2022/02/09 20:45:50;;;;;;;22.85;13.38;;;9.00;99.90;;;;;;5120302;27;20027;-77
2022/02/09 20:48:16;;;;;;;28.13;14.52;;;9.00;99.90;;;;;;5123170;27;20027;-76
2022/02/09 20:50:43;;;;;;;22.27;13.88;;;9.00;99.90;;;;;;5121385;27;20031;-76
2022/02/09 20:53:09;;;;;;;22.90;13.43;;;8.90;99.90;;;;;;5116601;27;20031;-75
2022/02/09 20:55:35;;;;;;;24.17;14.73;;;8.90;99.90;;;;;;5122688;27;20038;-77
2022/02/09 20:58:02;;;;;;;28.45;14.95;;;8.90;99.90;;;;;;5123909;27;20034;-77
2022/02/09 21:00:43;;;;;;;30.55;15.07;;;8.90;99.90;;;;;;5125508;27;20051;-77
2022/02/09 21:03:37;;;;;;;25.30;14.93;;;8.90;99.90;;;;;;5125758;27;20034;-76
2022/02/09 21:09:23;;;;;;;24.98;13.60;;;8.80;99.90;;;;;;5068867;28;20055;-75
2022/02/09 21:12:07;;;;;;;26.90;13.23;;;8.80;99.90;;;;;;5072069;28;20104;-76
2022/02/09 21:20:21;;;;;;;19.10;13.32;;;8.80;99.90;;;;;;5071574;27;20042;-76
2022/02/09 21:23:09;;;;;;;26.42;15.35;;;8.80;99.90;;;;;;5124241;27;20189;-76
2022/02/09 21:44:50;;;;;;;37.78;16.50;;;8.80;99.90;;;;;;5120167;27;20050;-75
2022/02/09 21:51:00;;;;;;;35.80;19.13;;;8.50;99.90;;;;;;5117574;27;20378;-75
2022/02/09 21:53:12;;;;;;;39.65;20.23;;;8.90;99.90;;;;;;5112667;28;20035;-76
2022/02/09 21:58:12;;;;;;;35.92;19.27;;;8.90;99.90;;;;;;5114222;28;20031;-75
2022/02/09 22:06:24;;;;;;;37.08;21.10;;;8.90;99.90;;;;;;5114045;28;20039;-76
2022/02/09 22:26:10;;;;;;;38.40;21.63;;;8.80;99.90;;;;;;5112772;28;20048;-76
2022/02/09 22:28:01;;;;;;;48.90;22.35;;;9.80;99.90;;;;;;5113344;28;20039;-76
2022/02/09 22:31:13;;;;;;;34.13;21.90;;;8.90;99.90;;;;;;5116089;28;20093;-75
2022/02/09 22:55:16;;;;;;;39.53;22.33;;;8.90;99.90;;;;;;5115561;28;20024;-76
2022/02/09 23:00:50;;;;;;;38.78;24.50;;;8.80;99.90;;;;;;5114169;28;20043;-76
2022/02/09 23:03:31;;;;;;;39.70;23.27;;;8.80;99.90;;;;;;5113761;28;20418;-76
2022/02/09 23:09:22;;;;;;;38.42;23.75;;;8.70;99.90;;;;;;5113970;28;20038;-76
